createdAt,value
2022-12-03T00:00:42.787Z,102407.44
2022-12-03T00:03:09.456Z,102425.94
2022-12-03T00:05:36.115Z,102416.19
2022-12-03T00:08:02.981Z,102423.25
2022-12-03T00:10:29.583Z,102425.94
2022-12-03T00:12:58.961Z,102416.91
2022-12-03T00:15:25.585Z,102406.28
2022-12-03T00:18:01.307Z,102421.41
2022-12-03T00:20:28.019Z,102406.19
2022-12-03T00:22:54.618Z,102398.38
2022-12-03T00:25:21.148Z,102410.63
2022-12-03T00:27:49.881Z,102407.31
2022-12-03T00:30:16.846Z,102404.28
2022-12-03T00:32:45.640Z,102413.28
2022-12-03T00:35:12.304Z,102402.50
2022-12-03T00:37:38.923Z,102417.75
2022-12-03T00:40:06.738Z,102395.63
2022-12-03T00:42:33.323Z,102401.69
2022-12-03T00:44:59.891Z,102395.50
2022-12-03T00:47:28.882Z,102405.19
2022-12-03T00:49:55.549Z,102403.38
2022-12-03T00:52:22.138Z,102402.50
2022-12-03T00:54:48.931Z,102378.66
2022-12-03T00:57:15.494Z,102403.31
2022-12-03T00:59:42.088Z,102406.00
2022-12-03T01:02:09.201Z,102399.69
2022-12-03T01:04:36.005Z,102400.78
2022-12-03T01:07:04.856Z,102406.00
2022-12-03T01:09:31.501Z,102384.63
2022-12-03T01:11:58.139Z,102397.13
2022-12-03T01:14:24.830Z,102384.56
2022-12-03T01:16:51.614Z,102397.00
2022-12-03T01:19:19.408Z,102388.97
2022-12-03T01:21:49.542Z,102392.53
2022-12-03T01:24:21.613Z,102396.22
2022-12-03T01:26:48.238Z,102371.38
2022-12-03T01:29:16.158Z,102386.44
2022-12-03T01:32:03.872Z,102384.56
2022-12-03T01:34:30.446Z,102389.16
2022-12-03T01:36:57.145Z,102377.50
2022-12-03T01:39:23.756Z,102368.91
2022-12-03T01:41:52.526Z,102374.88
2022-12-03T01:44:24.449Z,102382.94
2022-12-03T01:46:54.209Z,102381.81
2022-12-03T01:49:25.301Z,102380.84
2022-12-03T01:51:55.362Z,102369.22
2022-12-03T01:54:26.865Z,102364.91
2022-12-03T01:56:55.308Z,102364.16
2022-12-03T01:59:29.346Z,102376.25
2022-12-03T02:01:58.135Z,102380.78
2022-12-03T02:04:25.498Z,102369.16
2022-12-03T02:06:52.383Z,102371.78
2022-12-03T02:09:18.913Z,102374.44
2022-12-03T02:11:49.609Z,102354.94
2022-12-03T02:14:20.116Z,102357.63
2022-12-03T02:16:46.756Z,102374.38
2022-12-03T02:19:27.950Z,102364.78
2022-12-03T02:22:03.920Z,102373.56
2022-12-03T02:24:53.859Z,102369.94
2022-12-03T02:27:20.603Z,102362.84
2022-12-03T02:29:47.177Z,102368.06
2022-12-03T02:32:13.722Z,102375.25
2022-12-03T02:34:45.478Z,102368.97
2022-12-03T02:37:17.578Z,102363.75
2022-12-03T02:39:48.909Z,102366.16
2022-12-03T02:42:34.544Z,102364.44
2022-12-03T02:45:24.060Z,102352.75
2022-12-03T02:47:59.144Z,102359.09
2022-12-03T02:50:30.487Z,102357.38
2022-12-03T02:52:59.986Z,102360.88
2022-12-03T02:55:33.453Z,102347.72
2022-12-03T02:58:04.843Z,102347.41
2022-12-03T03:00:32.109Z,102341.47
2022-12-03T03:02:59.059Z,102350.00
2022-12-03T03:05:25.706Z,102348.44
2022-12-03T03:07:52.614Z,102366.97
2022-12-03T03:10:23.658Z,102356.41
2022-12-03T03:12:54.204Z,102358.94
2022-12-03T03:15:21.549Z,102338.59
2022-12-03T03:17:48.278Z,102352.63
2022-12-03T03:20:15.427Z,102353.44
2022-12-03T03:22:43.146Z,102341.97
2022-12-03T03:25:13.435Z,102345.41
2022-12-03T03:27:41.839Z,102347.13
2022-12-03T03:30:09.843Z,102333.09
2022-12-03T03:32:37.399Z,102336.53
2022-12-03T03:35:06.837Z,102335.59
2022-12-03T03:37:33.713Z,102347.31
2022-12-03T03:40:00.306Z,102330.28
2022-12-03T03:42:27.196Z,102330.31
2022-12-03T03:44:54.009Z,102334.00
2022-12-03T03:47:23.725Z,102339.34
2022-12-03T03:49:51.018Z,102323.28
2022-12-03T03:52:19.774Z,102329.41
2022-12-03T03:54:47.247Z,102338.34
2022-12-03T03:57:14.388Z,102334.84
2022-12-03T03:59:41.445Z,102333.94
2022-12-03T04:02:17.688Z,102312.69
2022-12-03T04:04:44.593Z,102321.44
2022-12-03T04:07:11.115Z,102324.13
2022-12-03T04:09:40.678Z,102320.47
2022-12-03T04:12:25.733Z,102325.75
2022-12-03T04:14:58.903Z,102302.63
2022-12-03T04:17:25.643Z,102316.97
2022-12-03T04:19:54.541Z,102327.56
2022-12-03T04:22:39.891Z,102326.69
2022-12-03T04:25:29.691Z,102326.75
2022-12-03T04:28:14.805Z,102316.16
2022-12-03T04:30:41.486Z,102315.34
2022-12-03T04:33:26.711Z,102315.03
2022-12-03T04:35:53.421Z,102316.00
2022-12-03T04:38:19.993Z,102310.66
2022-12-03T04:41:01.770Z,102318.63
2022-12-03T04:43:29.606Z,102313.28
2022-12-03T04:45:56.329Z,102315.03
2022-12-03T04:48:22.936Z,102286.97
2022-12-03T04:50:49.698Z,102301.75
2022-12-03T04:53:19.060Z,102303.44
2022-12-03T04:55:45.628Z,102309.00
2022-12-03T04:58:14.438Z,102303.69
2022-12-03T05:00:41.020Z,102312.38
2022-12-03T05:03:07.652Z,102307.00
2022-12-03T05:05:34.207Z,102307.84
2022-12-03T05:08:00.869Z,102301.56
2022-12-03T05:10:27.516Z,102302.44
2022-12-03T05:12:56.647Z,102306.00
2022-12-03T05:15:23.222Z,102296.97
2022-12-03T05:17:52.106Z,102283.97
2022-12-03T05:20:37.146Z,102291.84
2022-12-03T05:23:03.763Z,102294.63
2022-12-03T05:25:30.302Z,102304.31
2022-12-03T05:27:56.905Z,102285.84
2022-12-03T05:30:23.591Z,102284.81
2022-12-03T05:32:50.189Z,102296.47
2022-12-03T05:35:17.036Z,102290.97
2022-12-03T05:37:43.635Z,102270.72
2022-12-03T05:40:11.043Z,102289.22
2022-12-03T05:42:57.114Z,102285.63
2022-12-03T05:45:38.210Z,102289.22
2022-12-03T05:48:09.503Z,102278.50
2022-12-03T05:50:40.323Z,102283.84
2022-12-03T05:53:07.073Z,102275.94
2022-12-03T05:55:33.654Z,102282.06
2022-12-03T05:58:00.323Z,102275.06
2022-12-03T06:00:42.433Z,102282.06
2022-12-03T06:03:12.049Z,102284.94
2022-12-03T06:05:38.758Z,102285.75
2022-12-03T06:08:05.385Z,102281.38
2022-12-03T06:10:32.539Z,102281.38
2022-12-03T06:12:59.145Z,102291.34
2022-12-03T06:15:27.921Z,102278.88
2022-12-03T06:17:54.539Z,102284.94
2022-12-03T06:20:21.502Z,102283.16
2022-12-03T06:22:48.364Z,102281.38
2022-12-03T06:25:17.741Z,102273.44
2022-12-03T06:27:44.726Z,102286.84
2022-12-03T06:30:12.563Z,102278.75
2022-12-03T06:32:39.138Z,102279.81
2022-12-03T06:35:05.824Z,102285.06
2022-12-03T06:37:34.654Z,102268.09
2022-12-03T06:40:03.883Z,102277.94
2022-12-03T06:42:30.487Z,102271.09
2022-12-03T06:44:57.142Z,102261.41
2022-12-03T06:47:23.927Z,102276.38
2022-12-03T06:49:50.549Z,102277.16
2022-12-03T06:52:17.087Z,102272.69
2022-12-03T06:54:43.739Z,102266.41
2022-12-03T06:57:11.315Z,102265.59
2022-12-03T06:59:38.326Z,102261.22
2022-12-03T07:02:05.339Z,102269.94
2022-12-03T07:04:34.152Z,102268.97
2022-12-03T07:07:00.713Z,102251.19
2022-12-03T07:09:29.777Z,102270.69
2022-12-03T07:11:56.434Z,102246.13
2022-12-03T07:14:23.070Z,102263.53
2022-12-03T07:16:49.618Z,102268.91
2022-12-03T07:19:16.805Z,102271.53
2022-12-03T07:21:43.585Z,102270.69
2022-12-03T07:24:10.964Z,102254.81
2022-12-03T07:26:37.568Z,102263.66
2022-12-03T07:29:04.149Z,102276.00
2022-12-03T07:31:30.896Z,102260.16
2022-12-03T07:33:57.539Z,102270.00
2022-12-03T07:36:24.069Z,102278.75
2022-12-03T07:38:50.657Z,102266.66
2022-12-03T07:41:19.043Z,102276.25
2022-12-03T07:43:47.367Z,102289.72
2022-12-03T07:46:14.227Z,102283.53
2022-12-03T07:48:40.784Z,102276.38
2022-12-03T07:51:08.184Z,102274.53
2022-12-03T07:53:36.214Z,102288.72
2022-12-03T07:56:06.501Z,102251.75
2022-12-03T07:58:33.114Z,102274.53
2022-12-03T08:00:59.819Z,102277.13
2022-12-03T08:03:26.555Z,102281.63
2022-12-03T08:05:55.146Z,102275.50
2022-12-03T08:08:21.804Z,102282.56
2022-12-03T08:10:48.545Z,102279.06
2022-12-03T08:13:16.934Z,102279.19
2022-12-03T08:15:44.601Z,102281.06
2022-12-03T08:18:21.441Z,102286.28
2022-12-03T08:20:50.541Z,102286.22
2022-12-03T08:23:24.211Z,102289.72
2022-12-03T08:25:52.364Z,102291.47
2022-12-03T08:28:26.771Z,102275.50
2022-12-03T08:31:12.559Z,102286.84
2022-12-03T08:33:42.052Z,102286.91
2022-12-03T08:36:19.930Z,102277.13
2022-12-03T08:38:55.772Z,102285.00
2022-12-03T08:41:43.234Z,102276.13
2022-12-03T08:44:36.326Z,102277.00
2022-12-03T08:47:08.874Z,102282.44
2022-12-03T08:49:39.288Z,102275.31
2022-12-03T08:52:33.285Z,102274.28
2022-12-03T08:55:05.346Z,102272.63
2022-12-03T08:57:34.617Z,102269.94
2022-12-03T09:00:12.102Z,102270.94
2022-12-03T09:02:48.549Z,102273.00
2022-12-03T09:05:29.367Z,102262.41
2022-12-03T09:07:56.017Z,102265.09
2022-12-03T09:10:22.555Z,102272.94
2022-12-03T09:12:49.057Z,102270.25
2022-12-03T09:15:15.789Z,102277.50
2022-12-03T09:17:42.435Z,102260.53
2022-12-03T09:20:09.483Z,102267.63
2022-12-03T09:22:36.257Z,102279.31
2022-12-03T09:25:02.857Z,102266.78
2022-12-03T09:27:29.377Z,102268.72
2022-12-03T09:29:58.155Z,102277.56
2022-12-03T09:32:24.890Z,102263.53
2022-12-03T09:34:51.869Z,102267.00
2022-12-03T09:37:18.717Z,102277.63
2022-12-03T09:39:45.269Z,102274.00
2022-12-03T09:42:12.076Z,102266.28
2022-12-03T09:44:39.019Z,102267.22
2022-12-03T09:47:06.908Z,102273.31
2022-12-03T09:49:37.145Z,102259.09
2022-12-03T09:52:05.808Z,102262.47
2022-12-03T09:54:35.076Z,102251.00
2022-12-03T09:57:03.697Z,102259.72
2022-12-03T09:59:33.508Z,102256.13
2022-12-03T10:02:02.956Z,102257.88
2022-12-03T10:04:29.887Z,102255.13
2022-12-03T10:06:58.644Z,102255.88
2022-12-03T10:09:28.546Z,102253.25
2022-12-03T10:11:57.411Z,102221.75
2022-12-03T10:14:24.782Z,102260.47
2022-12-03T10:16:53.572Z,102243.75
2022-12-03T10:19:26.577Z,102252.63
2022-12-03T10:21:55.894Z,102241.91
2022-12-03T10:24:33.485Z,102245.50
2022-12-03T10:27:21.769Z,102228.69
2022-12-03T10:29:56.588Z,102239.22
2022-12-03T10:32:42.869Z,102226.22
2022-12-03T10:35:15.712Z,102232.22
2022-12-03T10:38:02.675Z,102226.78
2022-12-03T10:40:32.631Z,102228.56
2022-12-03T10:43:18.562Z,102213.38
2022-12-03T10:46:12.839Z,102208.91
2022-12-03T10:48:39.763Z,102214.03
2022-12-03T10:51:09.540Z,102203.41
2022-12-03T10:53:38.678Z,102209.53
2022-12-03T10:56:07.520Z,102201.44
2022-12-03T10:58:39.069Z,102200.50
2022-12-03T11:01:26.540Z,102201.50
2022-12-03T11:03:56.636Z,102198.13
2022-12-03T11:06:23.662Z,102187.47
2022-12-03T11:08:58.467Z,102186.69
2022-12-03T11:11:29.647Z,102183.84
2022-12-03T11:14:00.548Z,102175.78
2022-12-03T11:16:42.010Z,102184.59
2022-12-03T11:19:19.167Z,102187.28
2022-12-03T11:22:06.982Z,102180.13
2022-12-03T11:24:35.783Z,102177.44
2022-12-03T11:27:02.317Z,102180.91
2022-12-03T11:29:56.977Z,102175.59
2022-12-03T11:32:38.699Z,102177.31
2022-12-03T11:35:13.426Z,102157.66
2022-12-03T11:37:40.227Z,102174.56
2022-12-03T11:40:18.797Z,102162.25
2022-12-03T11:42:47.576Z,102159.50
2022-12-03T11:45:22.626Z,102159.31
2022-12-03T11:47:58.520Z,102159.91
2022-12-03T11:50:45.142Z,102142.19
2022-12-03T11:53:20.243Z,102135.78
2022-12-03T11:55:52.176Z,102150.72
2022-12-03T11:58:25.850Z,102140.78
2022-12-03T12:00:55.719Z,102139.97
2022-12-03T12:03:32.877Z,102143.31
2022-12-03T12:06:08.362Z,102138.84
2022-12-03T12:08:41.061Z,102121.94
2022-12-03T12:11:20.721Z,102128.06
2022-12-03T12:13:47.179Z,102136.19
2022-12-03T12:16:14.025Z,102137.13
2022-12-03T12:18:55.049Z,102135.47
2022-12-03T12:21:47.618Z,102133.69
2022-12-03T12:24:47.011Z,102093.06
2022-12-03T12:27:45.183Z,102120.22
2022-12-03T12:30:19.934Z,102111.34
2022-12-03T12:33:01.853Z,102104.94
2022-12-03T12:35:32.988Z,102117.34
2022-12-03T12:38:20.896Z,102111.06
2022-12-03T12:40:49.439Z,102116.38
2022-12-03T12:43:29.636Z,102105.00
2022-12-03T12:46:13.515Z,102107.75
2022-12-03T12:48:45.997Z,102091.06
2022-12-03T12:51:18.858Z,102084.59
2022-12-03T12:53:46.062Z,102078.19
2022-12-03T12:56:24.626Z,102096.00
2022-12-03T12:58:52.084Z,102091.53
2022-12-03T13:01:31.749Z,102082.72
2022-12-03T13:03:59.613Z,102077.13
2022-12-03T13:06:28.605Z,102085.06
2022-12-03T13:08:55.619Z,102085.00
2022-12-03T13:11:45.724Z,102091.47
2022-12-03T13:14:19.384Z,102074.50
2022-12-03T13:16:47.728Z,102073.63
2022-12-03T13:19:23.764Z,102081.72
2022-12-03T13:21:56.488Z,102057.94
2022-12-03T13:24:42.729Z,102073.03
2022-12-03T13:27:18.349Z,102064.94
2022-12-03T13:29:47.476Z,102060.50
2022-12-03T13:32:18.599Z,102051.53
2022-12-03T13:34:46.667Z,102041.84
2022-12-03T13:37:23.346Z,102051.47
2022-12-03T13:39:53.317Z,102050.72
2022-12-03T13:42:39.264Z,102052.53
2022-12-03T13:45:15.084Z,102057.94
2022-12-03T13:48:08.566Z,102054.44
2022-12-03T13:50:41.290Z,102060.50
2022-12-03T13:53:20.041Z,102052.63
2022-12-03T13:55:49.549Z,102054.56
2022-12-03T13:58:16.271Z,102055.50
2022-12-03T14:00:50.370Z,102059.81
2022-12-03T14:03:17.591Z,102045.69
2022-12-03T14:05:44.219Z,102050.06
2022-12-03T14:08:10.863Z,102045.75
2022-12-03T14:10:39.721Z,102052.94
2022-12-03T14:13:06.342Z,102036.91
2022-12-03T14:15:32.862Z,102040.97
2022-12-03T14:17:59.436Z,102016.13
2022-12-03T14:20:26.077Z,102031.94
2022-12-03T14:22:57.739Z,102035.44
2022-12-03T14:25:28.319Z,102031.41
2022-12-03T14:27:54.897Z,102045.47
2022-12-03T14:30:21.524Z,102050.78
2022-12-03T14:32:50.631Z,102045.53
2022-12-03T14:35:17.494Z,102053.53
2022-12-03T14:37:46.344Z,102044.59
2022-12-03T14:40:16.629Z,102053.47
2022-12-03T14:42:47.800Z,102045.47
2022-12-03T14:45:14.379Z,102039.28
2022-12-03T14:47:40.965Z,102046.38
2022-12-03T14:50:08.252Z,102041.91
2022-12-03T14:52:34.899Z,102037.50
2022-12-03T14:55:30.437Z,102040.31
2022-12-03T15:00:55.603Z,102027.56
2022-12-03T15:03:35.857Z,102026.56
2022-12-03T15:06:02.473Z,102019.69
2022-12-03T15:08:29.082Z,102030.25
2022-12-03T15:10:55.719Z,102026.91
2022-12-03T15:13:22.349Z,102018.94
2022-12-03T15:15:48.888Z,102019.56
2022-12-03T15:18:15.476Z,102002.53
2022-12-03T15:20:42.115Z,102007.19
2022-12-03T15:23:12.791Z,102013.31
2022-12-03T15:25:40.991Z,102024.69
2022-12-03T15:28:07.616Z,102007.97
2022-12-03T15:30:36.854Z,102023.88
2022-12-03T15:33:04.299Z,102014.22
2022-12-03T15:35:31.126Z,102014.38
2022-12-03T15:37:57.840Z,102004.75
2022-12-03T15:40:25.647Z,102022.38
2022-12-03T15:42:52.652Z,102020.59
2022-12-03T15:45:19.423Z,102027.81
2022-12-03T15:47:46.123Z,102020.84
2022-12-03T15:50:14.183Z,102028.97
2022-12-03T15:52:43.232Z,102024.47
2022-12-03T15:55:10.702Z,102009.47
2022-12-03T15:57:39.655Z,102029.72
2022-12-03T16:00:07.298Z,102016.59
2022-12-03T16:02:34.664Z,102032.59
2022-12-03T16:05:04.748Z,102024.47
2022-12-03T16:07:31.363Z,102021.84
2022-12-03T16:09:57.956Z,102033.47
2022-12-03T16:12:24.929Z,102028.25
2022-12-03T16:14:51.640Z,102015.97
2022-12-03T16:17:18.213Z,102025.75
2022-12-03T16:19:45.319Z,102021.16
2022-12-03T16:22:14.704Z,102027.41
2022-12-03T16:24:41.498Z,102027.53
2022-12-03T16:27:08.551Z,102017.88
2022-12-03T16:29:37.587Z,102013.47
2022-12-03T16:32:04.847Z,102008.09
2022-12-03T16:34:31.426Z,102010.66
2022-12-03T16:36:57.932Z,102015.03
2022-12-03T16:39:24.627Z,102014.38
2022-12-03T16:41:51.420Z,102019.75
2022-12-03T16:44:31.494Z,102013.34
2022-12-03T16:47:01.609Z,102012.53
2022-12-03T16:49:28.600Z,102017.19
2022-12-03T16:51:55.182Z,102000.50
2022-12-03T16:54:24.331Z,102010.31
2022-12-03T16:56:50.932Z,102014.63
2022-12-03T16:59:17.508Z,102003.25
2022-12-03T17:01:46.214Z,102010.97
2022-12-03T17:04:12.841Z,102015.56
2022-12-03T17:06:39.450Z,102011.44
2022-12-03T17:09:06.094Z,102015.88
2022-12-03T17:11:32.631Z,102015.00
2022-12-03T17:13:59.211Z,101994.94
2022-12-03T17:16:28.336Z,102013.31
2022-12-03T17:18:54.933Z,102013.25
2022-12-03T17:21:23.751Z,102017.63
2022-12-03T17:23:51.072Z,102018.50
2022-12-03T17:26:18.466Z,102018.50
2022-12-03T17:28:45.912Z,102007.25
2022-12-03T17:31:15.301Z,102014.34
2022-12-03T17:33:42.027Z,102018.69
2022-12-03T17:36:11.764Z,102012.50
2022-12-03T17:38:39.513Z,102009.06
2022-12-03T17:41:07.490Z,102011.69
2022-12-03T17:43:34.102Z,102004.56
2022-12-03T17:46:05.036Z,102001.06
2022-12-03T17:48:31.740Z,102003.75
2022-12-03T17:50:58.584Z,101995.88
2022-12-03T17:53:27.728Z,101989.75
2022-12-03T17:55:54.930Z,101999.44
2022-12-03T17:58:23.851Z,102005.59
2022-12-03T18:00:54.014Z,102005.53
2022-12-03T18:03:23.848Z,101989.63
2022-12-03T18:05:50.464Z,102003.81
2022-12-03T18:08:17.192Z,102012.69
2022-12-03T18:10:43.913Z,101991.53
2022-12-03T18:13:10.482Z,102004.75
2022-12-03T18:15:37.034Z,102003.00
2022-12-03T18:18:03.831Z,102008.59
2022-12-03T18:20:30.745Z,101988.25
2022-12-03T18:22:59.236Z,101988.19
2022-12-03T18:25:26.700Z,101958.50
2022-12-03T18:27:53.233Z,102005.34
2022-12-03T18:30:19.906Z,101991.09
2022-12-03T18:32:46.574Z,101982.25
2022-12-03T18:35:13.275Z,101989.94
2022-12-03T18:37:40.081Z,101967.88
2022-12-03T18:40:13.021Z,101985.31
2022-12-03T18:42:44.731Z,101989.06
2022-12-03T18:45:12.943Z,101981.25
2022-12-03T18:47:39.655Z,101955.81
2022-12-03T18:50:07.134Z,101975.75
2022-12-03T18:52:33.893Z,101990.88
2022-12-03T18:55:00.438Z,101974.19
2022-12-03T18:57:27.075Z,101988.00
2022-12-03T18:59:53.874Z,101978.19
2022-12-03T19:02:54.184Z,101983.75
2022-12-03T19:05:12.651Z,101975.81
2022-12-03T19:07:39.317Z,101943.50
2022-12-03T19:10:06.524Z,101974.00
2022-12-03T19:12:35.976Z,101957.00
2022-12-03T19:15:04.323Z,101967.69
2022-12-03T19:17:31.243Z,101983.81
2022-12-03T19:20:02.590Z,101975.06
2022-12-03T19:22:29.335Z,101980.25
2022-12-03T19:24:55.840Z,101977.69
2022-12-03T19:27:22.415Z,101955.88
2022-12-03T19:29:51.677Z,101967.38
2022-12-03T19:32:18.395Z,101968.91
2022-12-03T19:34:44.950Z,101961.88
2022-12-03T19:37:11.625Z,101960.34
2022-12-03T19:39:38.142Z,101983.09
2022-12-03T19:42:04.930Z,101984.06
2022-12-03T19:44:33.945Z,101974.94
2022-12-03T19:47:02.667Z,101983.94
2022-12-03T19:49:29.296Z,101975.94
2022-12-03T19:51:58.325Z,101977.00
2022-12-03T19:54:24.968Z,101971.59
2022-12-03T19:56:51.593Z,101966.22
2022-12-03T19:59:20.611Z,101956.50
2022-12-03T20:01:47.384Z,101963.47
2022-12-03T20:04:14.168Z,101969.75
2022-12-03T20:06:40.822Z,101954.84
2022-12-03T20:09:11.448Z,101964.69
2022-12-03T20:11:39.479Z,101971.59
2022-12-03T20:14:08.932Z,101956.75
2022-12-03T20:16:36.173Z,101965.63
2022-12-03T20:19:09.095Z,101965.44
2022-12-03T20:21:36.878Z,101976.13
2022-12-03T20:24:04.461Z,101961.19
2022-12-03T20:26:31.688Z,101954.13
2022-12-03T20:28:59.018Z,101979.63
2022-12-03T20:31:28.726Z,101986.75
2022-12-03T20:33:57.927Z,101954.84
2022-12-03T20:36:25.630Z,101971.59
2022-12-03T20:38:56.966Z,101974.41
2022-12-03T20:41:23.879Z,101954.19
2022-12-03T20:43:53.256Z,101954.13
2022-12-03T20:46:22.824Z,101948.00
2022-12-03T20:48:53.974Z,101953.13
2022-12-03T20:51:22.294Z,101946.84
2022-12-03T20:53:49.325Z,101935.59
2022-12-03T20:56:27.228Z,101938.28
2022-12-03T20:58:54.283Z,101955.13
2022-12-03T21:01:26.459Z,101944.38
2022-12-03T21:03:55.299Z,101939.94
2022-12-03T21:06:23.513Z,101944.56
2022-12-03T21:08:52.931Z,101941.09
2022-12-03T21:11:24.244Z,101946.19
2022-12-03T21:13:51.269Z,101941.88
2022-12-03T21:16:39.467Z,101934.69
2022-12-03T21:19:07.917Z,101919.53
2022-12-03T21:21:35.511Z,101922.16
2022-12-03T21:24:02.134Z,101934.56
2022-12-03T21:26:28.816Z,101911.81
2022-12-03T21:28:55.524Z,101910.97
2022-12-03T21:31:26.047Z,101919.59
2022-12-03T21:33:57.196Z,101914.38
2022-12-03T21:36:24.663Z,101930.22
2022-12-03T21:38:51.728Z,101920.50
2022-12-03T21:41:20.924Z,101924.91
2022-12-03T21:43:47.505Z,101919.81
2022-12-03T21:47:09.146Z,101928.63
2022-12-03T21:49:06.391Z,101933.19
2022-12-03T21:51:33.349Z,101903.56
2022-12-03T21:53:59.955Z,101941.16
2022-12-03T21:56:26.537Z,101943.00
2022-12-03T21:58:53.090Z,101934.13
2022-12-03T22:01:23.808Z,101929.72
2022-12-03T22:03:52.847Z,101927.09
2022-12-03T22:06:20.227Z,101945.00
2022-12-03T22:08:47.645Z,101936.06
2022-12-03T22:11:20.574Z,101901.78
2022-12-03T22:13:47.684Z,101905.50
2022-12-03T22:16:19.599Z,101903.69
2022-12-03T22:18:46.209Z,101924.94
2022-12-03T22:21:15.496Z,101935.38
2022-12-03T22:23:42.273Z,101928.13
2022-12-03T22:26:12.784Z,101928.25
2022-12-03T22:28:43.070Z,101921.22
2022-12-03T22:31:10.058Z,101923.13
2022-12-03T22:33:37.145Z,101920.44
2022-12-03T22:36:14.682Z,101910.66
2022-12-03T22:38:47.797Z,101913.22
2022-12-03T22:41:19.232Z,101911.44
2022-12-03T22:43:46.519Z,101913.16
2022-12-03T22:46:13.511Z,101885.00
2022-12-03T22:48:42.171Z,101911.25
2022-12-03T22:51:22.750Z,101903.50
2022-12-03T22:54:00.853Z,101914.75
2022-12-03T22:56:29.623Z,101916.56
2022-12-03T22:58:56.177Z,101917.31
2022-12-03T23:01:33.873Z,101913.59
2022-12-03T23:04:01.265Z,101909.13
2022-12-03T23:06:28.516Z,101904.00
2022-12-03T23:08:55.760Z,101914.44
2022-12-03T23:11:25.005Z,101904.69
2022-12-03T23:13:54.543Z,101908.09
2022-12-03T23:16:27.490Z,101907.47
2022-12-03T23:18:56.799Z,101904.69
2022-12-03T23:21:29.323Z,101902.97
2022-12-03T23:23:57.223Z,101896.84
2022-12-03T23:26:29.529Z,101894.28
2022-12-03T23:28:56.906Z,101905.72
2022-12-03T23:31:31.869Z,101902.13
2022-12-03T23:33:59.520Z,101898.56
2022-12-03T23:36:30.502Z,101904.75
2022-12-03T23:38:57.432Z,101903.81
2022-12-03T23:41:25.053Z,101903.03
2022-12-03T23:43:52.390Z,101908.22
2022-12-03T23:46:22.126Z,101910.06
2022-12-03T23:48:49.152Z,101888.00
2022-12-03T23:51:21.889Z,101888.66
2022-12-03T23:53:50.716Z,101890.44
2022-12-03T23:56:21.983Z,101879.13
2022-12-03T23:58:49.162Z,101889.59
